Time;durP1;ratioP1;P1;durP2;ratioP2;P2;SDS_P1;SDS_P2;PMS_P1;PMS_P2;Temp;Humidity;BMP_temperature;BMP_pressure;BME280_temperature;BME280_humidity;BME280_pressure;Samples;Min_cycle;Max_cycle;Signal;HPM_P1;HPM_P2
2023/03/04 00:01:21;;;;;;;4.57;3.93;;;;;;;;;;5079406;28;20190;-51
2023/03/04 00:03:47;;;;;;;7.73;4.87;;;;;;;;;;5075551;28;20587;-51
2023/03/04 00:06:13;;;;;;;6.80;4.53;;;;;;;;;;5083310;28;20582;-51
2023/03/04 00:08:39;;;;;;;7.17;3.90;;;;;;;;;;5083692;28;20643;-51
2023/03/04 00:11:05;;;;;;;7.57;4.17;;;;;;;;;;5085003;28;20203;-51
2023/03/04 00:13:32;;;;;;;5.87;3.70;;;;;;;;;;5072895;28;20263;-51
2023/03/04 00:15:58;;;;;;;5.10;3.67;;;;;;;;;;5074648;28;20753;-51
2023/03/04 00:18:24;;;;;;;4.97;3.63;;;;;;;;;;5084808;28;20535;-51
2023/03/04 00:20:50;;;;;;;5.40;3.93;;;;;;;;;;5083931;28;20609;-51
2023/03/04 00:23:16;;;;;;;5.10;3.90;;;;;;;;;;5078938;28;20183;-51
2023/03/04 00:25:42;;;;;;;8.10;4.37;;;;;;;;;;5080739;28;20203;-51
2023/03/04 00:28:08;;;;;;;5.33;3.77;;;;;;;;;;5085556;28;20187;-51
2023/03/04 00:30:34;;;;;;;7.93;4.03;;;;;;;;;;5075818;28;20179;-51
2023/03/04 00:33:00;;;;;;;7.63;3.73;;;;;;;;;;5078338;28;20181;-51
2023/03/04 00:35:26;;;;;;;5.43;3.97;;;;;;;;;;5078043;28;20177;-51
2023/03/04 00:37:52;;;;;;;5.00;3.40;;;;;;;;;;5075629;28;20184;-51
2023/03/04 00:40:18;;;;;;;6.07;3.73;;;;;;;;;;5082062;28;21013;-52
2023/03/04 00:42:44;;;;;;;8.03;4.43;;;;;;;;;;5086823;28;20332;-51
2023/03/04 00:45:10;;;;;;;8.00;4.20;;;;;;;;;;5076660;28;20635;-51
2023/03/04 00:47:37;;;;;;;4.93;3.10;;;;;;;;;;5084589;28;20179;-51
2023/03/04 00:50:03;;;;;;;7.00;3.57;;;;;;;;;;5077732;28;20188;-51
2023/03/04 00:52:29;;;;;;;6.67;3.20;;;;;;;;;;5080437;28;20222;-51
2023/03/04 00:54:55;;;;;;;3.50;3.20;;;;;;;;;;5078664;28;20188;-51
2023/03/04 00:57:21;;;;;;;7.33;3.40;;;;;;;;;;5080358;28;20207;-51
2023/03/04 00:59:47;;;;;;;5.90;3.17;;;;;;;;;;5080111;28;20184;-51
2023/03/04 01:02:13;;;;;;;5.20;3.10;;;;;;;;;;5075072;28;20238;-51
2023/03/04 01:04:40;;;;;;;4.60;3.17;;;;;;;;;;5081580;28;20235;-51
2023/03/04 01:07:06;;;;;;;7.77;3.30;;;;;;;;;;5080767;28;20222;-51
2023/03/04 01:09:32;;;;;;;5.47;3.03;;;;;;;;;;5083213;28;20176;-51
2023/03/04 01:11:58;;;;;;;7.17;3.27;;;;;;;;;;5079868;28;20674;-51
2023/03/04 01:14:25;;;;;;;4.10;2.57;;;;;;;;;;5076811;28;20187;-51
2023/03/04 01:16:51;;;;;;;3.93;3.20;;;;;;;;;;5078860;28;20554;-51
2023/03/04 01:19:17;;;;;;;4.80;3.13;;;;;;;;;;5077359;28;20187;-51
2023/03/04 01:21:43;;;;;;;5.63;3.30;;;;;;;;;;5078823;28;20181;-51
2023/03/04 01:24:09;;;;;;;4.17;2.90;;;;;;;;;;5075240;28;20625;-51
2023/03/04 01:26:35;;;;;;;5.63;3.10;;;;;;;;;;5079360;28;20204;-51
2023/03/04 01:29:01;;;;;;;9.90;3.03;;;;;;;;;;5076326;28;20176;-51
2023/03/04 01:31:27;;;;;;;4.43;2.73;;;;;;;;;;5074620;28;20653;-51
2023/03/04 01:33:53;;;;;;;7.43;3.43;;;;;;;;;;5073088;28;20176;-51
2023/03/04 01:36:19;;;;;;;7.47;2.83;;;;;;;;;;5076693;28;20195;-51
2023/03/04 01:38:45;;;;;;;4.83;3.20;;;;;;;;;;5079994;28;20187;-51
2023/03/04 01:41:12;;;;;;;3.53;2.67;;;;;;;;;;5075689;28;20180;-51
2023/03/04 01:43:38;;;;;;;3.90;2.70;;;;;;;;;;5074116;28;20180;-51
2023/03/04 01:46:05;;;;;;;3.83;2.50;;;;;;;;;;5082989;28;20203;-51
2023/03/04 01:48:35;;;;;;;3.47;3.00;;;;;;;;;;5084229;28;20167;-51
2023/03/04 01:51:04;;;;;;;5.27;2.60;;;;;;;;;;5081010;28;20182;-51
2023/03/04 01:53:31;;;;;;;3.40;2.63;;;;;;;;;;5081967;28;20180;-52
2023/03/04 01:56:18;;;;;;;7.20;3.00;;;;;;;;;;5081204;28;20191;-51
2023/03/04 01:58:44;;;;;;;8.73;2.87;;;;;;;;;;5073283;28;20176;-51
2023/03/04 02:01:11;;;;;;;4.17;2.70;;;;;;;;;;5077611;28;20531;-51
2023/03/04 02:03:38;;;;;;;4.90;2.90;;;;;;;;;;5081839;28;20653;-51
2023/03/04 02:06:04;;;;;;;5.07;2.63;;;;;;;;;;5080138;28;20724;-51
2023/03/04 02:08:30;;;;;;;7.23;3.17;;;;;;;;;;5075416;28;21831;-51
2023/03/04 02:10:57;;;;;;;3.77;2.67;;;;;;;;;;5082293;28;20215;-51
2023/03/04 02:13:23;;;;;;;3.37;2.80;;;;;;;;;;5079575;28;20172;-51
2023/03/04 02:15:49;;;;;;;6.87;2.57;;;;;;;;;;5085064;28;20191;-51
2023/03/04 02:18:17;;;;;;;5.63;3.10;;;;;;;;;;5081004;28;20182;-51
2023/03/04 02:20:50;;;;;;;6.87;2.50;;;;;;;;;;5081337;28;20233;-51
2023/03/04 02:23:19;;;;;;;4.17;2.80;;;;;;;;;;5082290;28;20255;-51
2023/03/04 02:25:49;;;;;;;8.30;2.63;;;;;;;;;;5079228;28;20204;-51
2023/03/04 02:28:15;;;;;;;5.77;2.97;;;;;;;;;;5077720;28;20213;-51
2023/03/04 02:30:41;;;;;;;5.90;3.03;;;;;;;;;;5078886;28;20639;-51
2023/03/04 02:33:14;;;;;;;9.53;3.63;;;;;;;;;;5078827;28;20184;-51
2023/03/04 02:35:40;;;;;;;7.83;3.50;;;;;;;;;;5079824;28;20183;-51
2023/03/04 02:38:06;;;;;;;6.13;3.20;;;;;;;;;;5080107;28;20589;-51
2023/03/04 02:40:33;;;;;;;7.87;2.90;;;;;;;;;;5082853;28;20701;-51
2023/03/04 02:43:00;;;;;;;7.37;2.93;;;;;;;;;;5079202;28;20208;-51
2023/03/04 02:45:35;;;;;;;6.37;3.23;;;;;;;;;;5085169;28;20205;-51
2023/03/04 02:48:01;;;;;;;7.93;3.13;;;;;;;;;;5079272;28;20179;-51
2023/03/04 02:50:29;;;;;;;5.10;3.00;;;;;;;;;;5082403;28;20176;-51
2023/03/04 02:52:55;;;;;;;10.83;3.73;;;;;;;;;;5081870;28;20258;-51
2023/03/04 02:55:21;;;;;;;14.17;4.33;;;;;;;;;;5083723;28;20214;-51
2023/03/04 02:57:47;;;;;;;5.63;3.27;;;;;;;;;;5084065;28;20172;-51
2023/03/04 03:00:13;;;;;;;6.30;3.23;;;;;;;;;;5084354;28;20199;-51
2023/03/04 03:02:39;;;;;;;8.30;3.60;;;;;;;;;;5077204;28;20179;-51
2023/03/04 03:05:05;;;;;;;4.33;3.67;;;;;;;;;;5080710;28;20530;-51
2023/03/04 03:07:33;;;;;;;8.30;3.27;;;;;;;;;;5080323;28;20673;-51
2023/03/04 03:09:59;;;;;;;8.70;3.30;;;;;;;;;;5081182;28;20180;-51
2023/03/04 03:12:28;;;;;;;9.07;4.10;;;;;;;;;;5077796;28;20847;-51
2023/03/04 03:14:55;;;;;;;6.63;3.37;;;;;;;;;;5079174;28;20173;-52
2023/03/04 03:17:21;;;;;;;6.10;3.97;;;;;;;;;;5074774;28;20184;-51
2023/03/04 03:19:47;;;;;;;5.47;3.90;;;;;;;;;;5076002;28;20186;-51
2023/03/04 03:22:13;;;;;;;9.23;3.97;;;;;;;;;;5082867;28;20255;-51
2023/03/04 03:24:39;;;;;;;7.93;3.80;;;;;;;;;;5085445;28;20179;-52
2023/03/04 03:27:05;;;;;;;8.30;3.40;;;;;;;;;;5079610;28;20682;-51
2023/03/04 03:29:31;;;;;;;12.83;4.37;;;;;;;;;;5080033;28;20172;-51
2023/03/04 03:31:57;;;;;;;10.03;3.53;;;;;;;;;;5085406;28;20179;-51
2023/03/04 03:34:23;;;;;;;11.17;4.07;;;;;;;;;;5080791;28;20282;-51
2023/03/04 03:36:49;;;;;;;5.97;3.70;;;;;;;;;;5083390;28;20187;-51
2023/03/04 03:39:16;;;;;;;8.73;3.93;;;;;;;;;;5085320;28;20187;-51
2023/03/04 03:41:42;;;;;;;7.20;3.10;;;;;;;;;;5074357;28;20184;-51
2023/03/04 03:44:08;;;;;;;7.03;3.90;;;;;;;;;;5081045;28;20579;-51
2023/03/04 03:46:34;;;;;;;3.83;2.90;;;;;;;;;;5076998;28;20204;-51
2023/03/04 03:49:00;;;;;;;7.43;3.80;;;;;;;;;;5084611;28;20194;-51
2023/03/04 03:51:26;;;;;;;7.83;3.83;;;;;;;;;;5083019;28;20179;-51
2023/03/04 03:53:52;;;;;;;9.73;3.67;;;;;;;;;;5084353;28;20176;-51
2023/03/04 03:56:19;;;;;;;7.37;3.70;;;;;;;;;;5081217;28;20183;-51
2023/03/04 03:58:45;;;;;;;6.47;3.53;;;;;;;;;;5075440;28;20571;-51
2023/03/04 04:01:11;;;;;;;8.13;4.63;;;;;;;;;;5082660;28;20229;-51
2023/03/04 04:03:37;;;;;;;7.93;3.67;;;;;;;;;;5079766;28;20322;-51
2023/03/04 04:06:03;;;;;;;9.10;3.13;;;;;;;;;;5077862;28;20250;-51
2023/03/04 04:08:29;;;;;;;7.13;4.90;;;;;;;;;;5077452;28;20628;-51
2023/03/04 04:10:55;;;;;;;10.73;4.40;;;;;;;;;;5071399;28;20206;-51
2023/03/04 04:13:21;;;;;;;7.47;3.63;;;;;;;;;;5085289;28;20175;-51
2023/03/04 04:15:47;;;;;;;6.77;3.33;;;;;;;;;;5081717;28;20599;-51
2023/03/04 04:18:13;;;;;;;6.10;3.87;;;;;;;;;;5080565;28;20180;-51
2023/03/04 04:20:39;;;;;;;5.50;3.73;;;;;;;;;;5080512;28;20184;-51
2023/03/04 04:23:05;;;;;;;3.97;2.87;;;;;;;;;;5083056;28;20533;-51
2023/03/04 04:25:31;;;;;;;5.37;3.40;;;;;;;;;;5080022;28;20180;-51
2023/03/04 04:27:58;;;;;;;8.23;3.40;;;;;;;;;;5077604;28;20200;-51
2023/03/04 04:30:24;;;;;;;8.80;3.60;;;;;;;;;;5073841;28;20172;-51
2023/03/04 04:32:50;;;;;;;4.33;3.20;;;;;;;;;;5078920;28;20662;-51
2023/03/04 04:35:16;;;;;;;6.03;3.83;;;;;;;;;;5091670;28;20179;-51
2023/03/04 04:37:42;;;;;;;5.63;3.93;;;;;;;;;;5085742;28;20659;-51
2023/03/04 04:40:09;;;;;;;7.40;4.97;;;;;;;;;;5079987;28;20534;-51
2023/03/04 04:42:35;;;;;;;6.53;4.40;;;;;;;;;;5077078;28;20234;-51
2023/03/04 04:45:01;;;;;;;6.57;3.50;;;;;;;;;;5078403;28;20257;-51
2023/03/04 04:47:27;;;;;;;7.10;3.70;;;;;;;;;;5084396;28;20195;-51
2023/03/04 04:49:53;;;;;;;6.63;3.57;;;;;;;;;;5074139;28;20590;-52
2023/03/04 04:52:19;;;;;;;6.57;3.53;;;;;;;;;;5080053;28;20524;-51
2023/03/04 04:54:45;;;;;;;5.40;3.67;;;;;;;;;;5083409;28;20179;-51
2023/03/04 04:57:11;;;;;;;6.27;3.40;;;;;;;;;;5079172;28;20270;-51
2023/03/04 04:59:37;;;;;;;6.97;3.43;;;;;;;;;;5079163;28;20184;-51
2023/03/04 05:02:03;;;;;;;8.40;4.17;;;;;;;;;;5073761;28;20185;-51
2023/03/04 05:04:29;;;;;;;6.47;3.70;;;;;;;;;;5080144;28;20231;-51
2023/03/04 05:06:55;;;;;;;8.00;3.77;;;;;;;;;;5079752;28;20258;-51
2023/03/04 05:09:21;;;;;;;6.97;4.63;;;;;;;;;;5076941;28;20187;-51
2023/03/04 05:11:48;;;;;;;6.77;3.70;;;;;;;;;;5079336;28;20580;-52
2023/03/04 05:14:14;;;;;;;4.40;3.57;;;;;;;;;;5082400;28;20187;-51
2023/03/04 05:16:40;;;;;;;6.20;3.77;;;;;;;;;;5091714;28;20685;-51
2023/03/04 05:19:06;;;;;;;5.93;3.67;;;;;;;;;;5081590;28;20168;-51
2023/03/04 05:21:32;;;;;;;9.67;3.53;;;;;;;;;;5078132;28;20187;-51
2023/03/04 05:23:58;;;;;;;7.83;3.13;;;;;;;;;;5077518;28;20195;-51
2023/03/04 05:26:24;;;;;;;7.53;3.07;;;;;;;;;;5080624;28;20200;-51
2023/03/04 05:28:50;;;;;;;6.40;3.57;;;;;;;;;;5083307;28;20651;-51
2023/03/04 05:31:16;;;;;;;7.73;3.87;;;;;;;;;;5079583;28;20195;-51
2023/03/04 05:33:42;;;;;;;9.13;3.30;;;;;;;;;;5076131;28;20234;-51
2023/03/04 05:36:09;;;;;;;5.97;3.17;;;;;;;;;;5084416;28;20738;-51
2023/03/04 05:38:35;;;;;;;9.10;3.30;;;;;;;;;;5081305;28;20538;-51
2023/03/04 05:41:03;;;;;;;9.50;3.23;;;;;;;;;;5079973;28;20184;-51
2023/03/04 05:43:29;;;;;;;5.67;3.50;;;;;;;;;;5077533;28;20659;-51
2023/03/04 05:45:55;;;;;;;6.00;3.50;;;;;;;;;;5081439;28;20227;-51
2023/03/04 05:48:22;;;;;;;6.23;2.87;;;;;;;;;;5080577;28;20233;-51
2023/03/04 05:50:53;;;;;;;7.30;3.40;;;;;;;;;;5085528;28;20179;-51
2023/03/04 05:53:19;;;;;;;7.27;3.57;;;;;;;;;;5078442;28;20538;-51
2023/03/04 05:55:48;;;;;;;4.23;2.80;;;;;;;;;;5088288;28;20831;-51
2023/03/04 05:58:14;;;;;;;6.23;4.20;;;;;;;;;;5083662;28;20643;-51
2023/03/04 06:00:40;;;;;;;8.07;3.97;;;;;;;;;;5077021;28;20184;-51
2023/03/04 06:03:06;;;;;;;6.77;3.70;;;;;;;;;;5075896;28;20319;-51
2023/03/04 06:05:32;;;;;;;7.40;3.37;;;;;;;;;;5055435;28;20273;-51
2023/03/04 06:07:58;;;;;;;6.13;3.03;;;;;;;;;;5064586;28;20591;-51
2023/03/04 06:10:24;;;;;;;4.20;2.80;;;;;;;;;;5070385;28;20671;-51
2023/03/04 06:12:52;;;;;;;6.80;3.00;;;;;;;;;;5064580;28;20276;-51
2023/03/04 06:15:18;;;;;;;10.30;2.97;;;;;;;;;;5057521;28;20260;-51
2023/03/04 06:17:44;;;;;;;6.63;3.07;;;;;;;;;;5063455;28;20185;-51
2023/03/04 06:20:10;;;;;;;4.87;2.93;;;;;;;;;;5060366;28;20189;-51
2023/03/04 06:22:36;;;;;;;4.33;2.47;;;;;;;;;;5066532;28;20213;-51
2023/03/04 06:25:02;;;;;;;5.77;2.70;;;;;;;;;;5057408;28;20180;-51
2023/03/04 06:27:28;;;;;;;3.97;2.87;;;;;;;;;;5064643;28;20211;-51
2023/03/04 06:29:55;;;;;;;4.87;3.00;;;;;;;;;;5062217;28;20181;-51
2023/03/04 06:32:21;;;;;;;5.00;3.23;;;;;;;;;;5058483;28;20596;-51
2023/03/04 06:34:47;;;;;;;6.90;2.50;;;;;;;;;;5058790;28;20234;-52
2023/03/04 06:37:13;;;;;;;5.07;2.80;;;;;;;;;;5061001;28;20188;-51
2023/03/04 06:39:39;;;;;;;5.50;2.80;;;;;;;;;;5062559;28;20314;-51
2023/03/04 06:42:05;;;;;;;6.60;2.70;;;;;;;;;;5060519;28;20219;-51
2023/03/04 06:44:31;;;;;;;8.17;2.40;;;;;;;;;;5059585;28;20198;-51
2023/03/04 06:46:57;;;;;;;6.23;2.90;;;;;;;;;;5059163;28;20564;-51
2023/03/04 06:49:23;;;;;;;4.43;2.13;;;;;;;;;;5061055;28;20191;-51
2023/03/04 06:51:49;;;;;;;5.80;2.90;;;;;;;;;;5063927;28;20184;-51
2023/03/04 06:54:15;;;;;;;8.37;3.20;;;;;;;;;;5057298;28;20177;-51
2023/03/04 06:56:41;;;;;;;4.37;2.10;;;;;;;;;;5059302;28;20275;-51
2023/03/04 06:59:07;;;;;;;4.97;2.40;;;;;;;;;;5055245;28;20267;-51
2023/03/04 07:01:34;;;;;;;7.23;2.93;;;;;;;;;;5061183;28;20252;-51
2023/03/04 07:04:00;;;;;;;6.20;2.80;;;;;;;;;;5069690;28;20277;-51
2023/03/04 07:06:27;;;;;;;9.73;3.30;;;;;;;;;;5079413;28;20598;-51
2023/03/04 07:08:54;;;;;;;5.07;2.67;;;;;;;;;;5075181;28;20179;-51
2023/03/04 07:11:20;;;;;;;5.03;2.43;;;;;;;;;;5082749;28;20204;-51
2023/03/04 07:13:47;;;;;;;5.47;2.57;;;;;;;;;;5079357;28;20184;-51
2023/03/04 07:16:14;;;;;;;5.40;2.57;;;;;;;;;;5077780;28;20186;-51
2023/03/04 07:18:41;;;;;;;7.23;2.57;;;;;;;;;;5071399;28;20188;-51
2023/03/04 07:21:07;;;;;;;6.43;2.60;;;;;;;;;;5077536;28;20223;-51
2023/03/04 07:23:34;;;;;;;6.27;2.83;;;;;;;;;;5072891;28;20187;-51
2023/03/04 07:26:00;;;;;;;6.63;2.83;;;;;;;;;;5077837;28;20295;-52
2023/03/04 07:28:26;;;;;;;5.67;2.87;;;;;;;;;;5084047;28;20271;-51
2023/03/04 07:30:53;;;;;;;5.43;2.97;;;;;;;;;;5083596;28;20176;-51
2023/03/04 07:33:19;;;;;;;4.23;3.10;;;;;;;;;;5080450;28;20180;-51
2023/03/04 07:35:45;;;;;;;7.03;2.90;;;;;;;;;;5083761;28;20187;-52
2023/03/04 07:38:11;;;;;;;8.80;2.73;;;;;;;;;;5078261;28;20589;-52
2023/03/04 07:40:37;;;;;;;4.70;3.00;;;;;;;;;;5077387;28;20179;-52
2023/03/04 07:43:03;;;;;;;3.77;2.80;;;;;;;;;;5081494;28;20183;-52
2023/03/04 07:45:29;;;;;;;6.33;3.00;;;;;;;;;;5080152;28;20182;-52
2023/03/04 07:47:57;;;;;;;3.50;2.60;;;;;;;;;;5077286;28;20186;-52
2023/03/04 07:50:23;;;;;;;7.30;2.67;;;;;;;;;;5077227;28;20176;-52
2023/03/04 07:52:52;;;;;;;6.13;2.80;;;;;;;;;;5079806;28;20570;-52
2023/03/04 07:55:18;;;;;;;5.43;3.10;;;;;;;;;;5083329;28;20773;-52
2023/03/04 07:57:45;;;;;;;4.67;3.23;;;;;;;;;;5076271;28;20209;-52
2023/03/04 08:00:12;;;;;;;6.50;3.10;;;;;;;;;;5080065;28;20195;-52
2023/03/04 08:02:39;;;;;;;7.47;2.40;;;;;;;;;;5074163;28;20219;-52
2023/03/04 08:05:05;;;;;;;3.93;2.47;;;;;;;;;;5080919;28;20214;-52
2023/03/04 08:07:31;;;;;;;6.03;2.87;;;;;;;;;;5079135;28;20413;-52
2023/03/04 08:09:57;;;;;;;5.53;2.33;;;;;;;;;;5076598;28;20267;-52
2023/03/04 08:12:24;;;;;;;6.57;2.70;;;;;;;;;;5076905;28;20227;-52
2023/03/04 08:14:50;;;;;;;3.53;2.33;;;;;;;;;;5076451;28;20670;-52
2023/03/04 08:17:16;;;;;;;5.80;2.47;;;;;;;;;;5086716;28;20187;-52
2023/03/04 08:19:42;;;;;;;3.70;2.67;;;;;;;;;;5065765;28;20664;-52
2023/03/04 08:22:09;;;;;;;4.97;2.40;;;;;;;;;;5084427;28;20184;-54
2023/03/04 08:24:35;;;;;;;3.67;2.10;;;;;;;;;;5083437;28;20175;-55
2023/03/04 08:27:01;;;;;;;4.17;2.10;;;;;;;;;;5084446;28;20209;-55
2023/03/04 08:29:27;;;;;;;3.50;2.20;;;;;;;;;;5079788;28;20524;-54
2023/03/04 08:31:54;;;;;;;4.77;2.17;;;;;;;;;;5081105;28;20205;-55
2023/03/04 08:34:21;;;;;;;5.93;1.87;;;;;;;;;;5069980;28;20519;-55
2023/03/04 08:36:47;;;;;;;4.13;1.97;;;;;;;;;;5082031;28;20615;-53
2023/03/04 08:39:14;;;;;;;6.00;2.03;;;;;;;;;;5080978;28;20180;-53
2023/03/04 08:41:40;;;;;;;5.23;1.97;;;;;;;;;;5082627;28;20561;-52
2023/03/04 08:44:09;;;;;;;3.40;1.80;;;;;;;;;;5092701;28;20685;-53
2023/03/04 08:46:35;;;;;;;3.77;2.00;;;;;;;;;;5067504;28;20203;-53
2023/03/04 08:49:01;;;;;;;3.37;1.63;;;;;;;;;;5083369;28;20183;-52
2023/03/04 08:51:27;;;;;;;4.57;2.07;;;;;;;;;;5084141;28;20168;-53
2023/03/04 08:53:53;;;;;;;6.13;2.40;;;;;;;;;;5089207;28;20179;-53
2023/03/04 08:56:19;;;;;;;7.03;2.30;;;;;;;;;;5082006;28;20201;-53
2023/03/04 08:58:46;;;;;;;8.20;2.60;;;;;;;;;;5082212;28;20216;-53
2023/03/04 09:01:12;;;;;;;4.40;2.20;;;;;;;;;;5087859;28;20175;-53
2023/03/04 09:03:38;;;;;;;4.20;2.33;;;;;;;;;;5082155;28;22051;-53
2023/03/04 09:06:05;;;;;;;3.97;2.20;;;;;;;;;;5092017;28;20199;-53
2023/03/04 09:08:31;;;;;;;6.07;2.17;;;;;;;;;;5087499;28;20183;-53
2023/03/04 09:10:57;;;;;;;4.33;2.10;;;;;;;;;;5083980;28;20600;-52
2023/03/04 09:13:24;;;;;;;5.10;1.70;;;;;;;;;;5084904;28;20168;-53
2023/03/04 09:15:51;;;;;;;6.47;2.03;;;;;;;;;;5084269;28;20253;-53
2023/03/04 09:18:17;;;;;;;5.67;2.07;;;;;;;;;;5075505;28;20267;-53
2023/03/04 09:20:44;;;;;;;7.17;2.10;;;;;;;;;;5087146;28;20658;-53
2023/03/04 09:23:10;;;;;;;4.17;1.70;;;;;;;;;;5090799;28;20164;-53
2023/03/04 09:25:37;;;;;;;5.10;1.80;;;;;;;;;;5086053;28;20183;-53
2023/03/04 09:28:03;;;;;;;4.00;1.83;;;;;;;;;;5084871;28;20172;-53
2023/03/04 09:30:29;;;;;;;2.97;2.33;;;;;;;;;;5082832;28;20187;-53
2023/03/04 09:32:56;;;;;;;4.93;2.07;;;;;;;;;;5075696;28;20561;-53
2023/03/04 09:35:22;;;;;;;4.30;2.03;;;;;;;;;;5083866;28;20175;-53
2023/03/04 09:37:49;;;;;;;3.70;1.97;;;;;;;;;;5083345;28;20207;-52
2023/03/04 09:40:20;;;;;;;3.47;1.83;;;;;;;;;;5087103;28;20179;-53
2023/03/04 09:42:48;;;;;;;5.13;2.50;;;;;;;;;;5081837;28;20183;-52
2023/03/04 09:45:25;;;;;;;3.27;1.70;;;;;;;;;;5085914;28;20172;-53
2023/03/04 09:47:53;;;;;;;4.53;2.50;;;;;;;;;;5083455;28;20224;-53
2023/03/04 09:50:20;;;;;;;8.27;2.73;;;;;;;;;;5083179;28;20571;-53
2023/03/04 09:53:06;;;;;;;2.53;1.70;;;;;;;;;;5081215;28;20204;-53
2023/03/04 09:55:38;;;;;;;5.17;2.20;;;;;;;;;;5082167;28;20183;-53
2023/03/04 09:58:16;;;;;;;3.37;1.80;;;;;;;;;;5086365;28;20179;-53
2023/03/04 10:00:44;;;;;;;4.27;1.70;;;;;;;;;;5083836;28;20247;-53
2023/03/04 10:03:18;;;;;;;5.03;1.67;;;;;;;;;;5085518;28;20227;-53
2023/03/04 10:05:44;;;;;;;4.27;2.23;;;;;;;;;;5076557;28;20587;-53
2023/03/04 10:08:20;;;;;;;5.30;1.87;;;;;;;;;;5084011;28;20631;-53
2023/03/04 10:10:47;;;;;;;9.90;2.27;;;;;;;;;;5082998;28;20815;-53
2023/03/04 10:13:16;;;;;;;5.83;1.90;;;;;;;;;;5084596;28;20521;-53
2023/03/04 10:15:43;;;;;;;5.23;2.00;;;;;;;;;;5073286;28;20181;-53
2023/03/04 10:18:18;;;;;;;2.10;1.63;;;;;;;;;;5077733;28;20510;-53
2023/03/04 10:20:49;;;;;;;4.93;1.70;;;;;;;;;;5082941;28;20656;-53
2023/03/04 10:23:18;;;;;;;5.17;1.90;;;;;;;;;;5087834;28;20171;-53
2023/03/04 10:25:45;;;;;;;3.83;1.83;;;;;;;;;;5083042;28;20172;-53
2023/03/04 10:28:18;;;;;;;4.00;1.93;;;;;;;;;;5076390;28;20575;-53
2023/03/04 10:31:10;;;;;;;2.40;1.77;;;;;;;;;;5084604;28;20651;-53
2023/03/04 10:33:37;;;;;;;4.30;1.50;;;;;;;;;;5047062;28;20200;-53
2023/03/04 10:36:03;;;;;;;3.47;1.80;;;;;;;;;;5084176;28;20192;-53
2023/03/04 10:38:31;;;;;;;3.57;1.53;;;;;;;;;;5085060;28;20184;-53
2023/03/04 10:40:58;;;;;;;2.63;1.63;;;;;;;;;;5083806;28;20213;-53
2023/03/04 10:43:24;;;;;;;3.17;1.80;;;;;;;;;;5085470;28;20177;-53
2023/03/04 10:45:54;;;;;;;4.30;1.60;;;;;;;;;;5082466;28;20187;-53
2023/03/04 10:48:23;;;;;;;2.80;1.83;;;;;;;;;;5084388;28;20172;-53
2023/03/04 10:50:49;;;;;;;2.50;1.50;;;;;;;;;;5087216;28;20556;-53
2023/03/04 10:53:24;;;;;;;3.00;1.63;;;;;;;;;;5089480;28;20203;-53
2023/03/04 10:55:50;;;;;;;2.57;1.47;;;;;;;;;;5093506;28;20437;-53
2023/03/04 10:58:18;;;;;;;3.27;1.60;;;;;;;;;;5089771;28;20176;-52
2023/03/04 11:00:44;;;;;;;2.87;1.50;;;;;;;;;;5088786;28;20180;-53
2023/03/04 11:03:22;;;;;;;1.83;1.70;;;;;;;;;;5088395;28;20737;-53
2023/03/04 11:05:48;;;;;;;2.43;1.30;;;;;;;;;;5085635;28;20176;-53
2023/03/04 11:08:22;;;;;;;4.10;1.70;;;;;;;;;;5089717;28;20179;-53
2023/03/04 11:10:49;;;;;;;2.27;1.73;;;;;;;;;;5082650;28;20199;-55
2023/03/04 11:13:18;;;;;;;3.17;1.40;;;;;;;;;;5084424;28;20172;-55
2023/03/04 11:15:49;;;;;;;2.77;1.67;;;;;;;;;;5085199;28;20190;-55
2023/03/04 11:18:15;;;;;;;2.70;1.60;;;;;;;;;;5086635;28;20172;-55
2023/03/04 11:20:42;;;;;;;1.97;1.40;;;;;;;;;;5087658;28;20202;-55
2023/03/04 11:23:14;;;;;;;2.13;1.93;;;;;;;;;;5082857;28;20249;-54
2023/03/04 11:25:43;;;;;;;2.20;1.33;;;;;;;;;;5088636;28;20187;-55
2023/03/04 11:28:19;;;;;;;3.10;1.63;;;;;;;;;;5084124;28;20187;-54
2023/03/04 11:30:48;;;;;;;2.17;1.30;;;;;;;;;;5089157;28;20262;-55
2023/03/04 11:33:22;;;;;;;1.43;1.30;;;;;;;;;;5083020;28;20181;-55
2023/03/04 11:36:03;;;;;;;2.80;1.30;;;;;;;;;;5084824;28;20240;-55
2023/03/04 11:38:44;;;;;;;2.40;1.77;;;;;;;;;;5087513;28;20233;-56
2023/03/04 11:41:20;;;;;;;3.63;1.53;;;;;;;;;;5077858;28;20268;-55
2023/03/04 11:43:46;;;;;;;3.40;1.37;;;;;;;;;;5084686;28;20190;-55
2023/03/04 11:46:31;;;;;;;1.43;1.33;;;;;;;;;;5081569;28;20210;-55
2023/03/04 11:49:07;;;;;;;1.57;1.40;;;;;;;;;;5080186;28;20260;-55
2023/03/04 11:51:52;;;;;;;2.33;1.77;;;;;;;;;;5080940;28;20191;-55
2023/03/04 11:54:18;;;;;;;1.97;1.63;;;;;;;;;;5073182;28;20588;-56
2023/03/04 11:56:44;;;;;;;1.53;1.13;;;;;;;;;;5081533;28;20176;-55
2023/03/04 11:59:13;;;;;;;1.47;1.37;;;;;;;;;;5080959;28;20176;-55
2023/03/04 12:01:45;;;;;;;1.50;1.40;;;;;;;;;;5081612;28;20180;-56
2023/03/04 12:04:20;;;;;;;5.47;1.87;;;;;;;;;;5081425;28;20560;-55
2023/03/04 12:06:55;;;;;;;1.77;1.57;;;;;;;;;;5088174;28;20214;-55
2023/03/04 12:09:29;;;;;;;1.77;1.30;;;;;;;;;;5081013;28;20772;-55
2023/03/04 12:12:10;;;;;;;3.70;1.60;;;;;;;;;;5083904;28;20580;-55
2023/03/04 12:15:06;;;;;;;5.47;2.13;;;;;;;;;;5084993;28;20628;-55
2023/03/04 12:17:32;;;;;;;1.70;1.60;;;;;;;;;;5009984;28;20191;-55
2023/03/04 12:20:08;;;;;;;1.47;1.33;;;;;;;;;;5084115;28;20780;-55
2023/03/04 12:22:43;;;;;;;2.80;1.93;;;;;;;;;;5079430;28;20187;-55
2023/03/04 12:25:12;;;;;;;2.10;1.80;;;;;;;;;;5081512;28;20288;-55
2023/03/04 12:27:51;;;;;;;4.37;1.60;;;;;;;;;;5084482;28;20204;-55
2023/03/04 12:30:36;;;;;;;2.63;1.80;;;;;;;;;;5078960;28;20167;-55
2023/03/04 12:33:08;;;;;;;3.97;1.88;;;;;;;;;;5081318;28;20410;-54
2023/03/04 12:35:41;;;;;;;3.70;2.37;;;;;;;;;;5080348;28;20172;-55
2023/03/04 12:38:30;;;;;;;2.10;1.90;;;;;;;;;;5080716;28;20916;-55
2023/03/04 12:41:18;;;;;;;2.73;1.50;;;;;;;;;;5067176;28;20195;-55
2023/03/04 12:44:01;;;;;;;4.03;2.80;;;;;;;;;;5085122;28;20210;-54
2023/03/04 12:46:44;;;;;;;4.50;2.70;;;;;;;;;;5076866;28;20202;-55
2023/03/04 12:49:28;;;;;;;3.73;2.00;;;;;;;;;;5077519;28;20539;-55
2023/03/04 12:51:57;;;;;;;2.60;1.60;;;;;;;;;;5077738;28;20167;-55
2023/03/04 12:54:33;;;;;;;2.30;1.90;;;;;;;;;;5076175;28;20236;-54
2023/03/04 12:57:06;;;;;;;5.67;1.70;;;;;;;;;;5075090;28;20838;-54
2023/03/04 12:59:52;;;;;;;2.90;1.83;;;;;;;;;;5078810;28;20184;-54
2023/03/04 13:02:29;;;;;;;3.40;2.30;;;;;;;;;;5081414;28;20186;-55
2023/03/04 13:05:04;;;;;;;6.43;4.20;;;;;;;;;;5083755;28;20195;-55
2023/03/04 13:07:39;;;;;;;3.27;2.57;;;;;;;;;;5081919;28;20219;-55
2023/03/04 13:10:09;;;;;;;5.20;2.50;;;;;;;;;;5082234;28;20172;-55
2023/03/04 13:12:47;;;;;;;3.57;2.50;;;;;;;;;;5080647;28;20539;-53
2023/03/04 13:15:13;;;;;;;4.53;2.27;;;;;;;;;;5078114;28;20214;-53
2023/03/04 13:17:39;;;;;;;3.90;2.20;;;;;;;;;;5080876;28;20176;-52
2023/03/04 13:20:13;;;;;;;2.53;2.27;;;;;;;;;;5078496;28;20183;-53
2023/03/04 13:22:39;;;;;;;2.57;1.90;;;;;;;;;;5081893;28;20188;-52
2023/03/04 13:25:28;;;;;;;3.13;1.80;;;;;;;;;;5077373;28;20184;-53
2023/03/04 13:28:03;;;;;;;2.90;2.13;;;;;;;;;;5080237;28;20209;-53
2023/03/04 13:30:32;;;;;;;2.77;1.80;;;;;;;;;;5057419;28;20261;-53
2023/03/04 13:33:18;;;;;;;4.43;2.47;;;;;;;;;;5080201;28;20172;-52
2023/03/04 13:35:50;;;;;;;2.50;1.70;;;;;;;;;;5063148;28;20199;-52
2023/03/04 13:38:29;;;;;;;3.20;1.73;;;;;;;;;;5079004;28;20167;-52
2023/03/04 13:41:05;;;;;;;1.83;1.73;;;;;;;;;;5083466;28;20175;-53
2023/03/04 13:43:40;;;;;;;1.77;1.67;;;;;;;;;;5072968;28;20183;-52
2023/03/04 13:46:18;;;;;;;3.63;1.90;;;;;;;;;;5077128;28;20191;-53
2023/03/04 13:48:50;;;;;;;2.70;1.70;;;;;;;;;;5076674;28;20172;-52
2023/03/04 13:51:16;;;;;;;3.27;2.17;;;;;;;;;;5078161;28;20183;-53
2023/03/04 13:53:43;;;;;;;1.60;1.50;;;;;;;;;;5076924;28;20180;-53
2023/03/04 13:56:20;;;;;;;1.67;1.57;;;;;;;;;;5087698;28;20543;-52
2023/03/04 13:58:48;;;;;;;3.57;2.07;;;;;;;;;;5080787;28;20218;-52
2023/03/04 14:01:30;;;;;;;1.87;1.57;;;;;;;;;;5085712;28;20275;-53
2023/03/04 14:03:56;;;;;;;1.83;1.73;;;;;;;;;;5080074;28;20706;-53
2023/03/04 14:06:27;;;;;;;2.03;1.80;;;;;;;;;;5084887;28;20203;-53
2023/03/04 14:08:54;;;;;;;3.20;2.13;;;;;;;;;;5080570;28;20180;-52
2023/03/04 14:11:33;;;;;;;2.90;2.23;;;;;;;;;;5088304;28;20812;-53
2023/03/04 14:14:03;;;;;;;1.80;1.70;;;;;;;;;;5089054;28;20206;-53
2023/03/04 14:16:31;;;;;;;2.90;1.80;;;;;;;;;;5091828;28;20262;-54
2023/03/04 14:19:01;;;;;;;2.20;2.00;;;;;;;;;;5084333;28;20694;-54
2023/03/04 14:21:28;;;;;;;3.10;1.80;;;;;;;;;;5088256;28;20179;-55
2023/03/04 14:24:01;;;;;;;2.97;1.97;;;;;;;;;;5082724;28;20194;-55
2023/03/04 14:26:29;;;;;;;2.27;1.80;;;;;;;;;;5087182;28;20195;-54
2023/03/04 14:28:58;;;;;;;4.67;2.60;;;;;;;;;;5078191;28;20184;-54
2023/03/04 14:31:26;;;;;;;2.20;1.60;;;;;;;;;;5081993;28;20172;-54
2023/03/04 14:34:00;;;;;;;1.70;1.50;;;;;;;;;;5086590;28;20180;-54
2023/03/04 14:36:27;;;;;;;2.37;2.03;;;;;;;;;;5088927;28;20182;-54
2023/03/04 14:38:55;;;;;;;1.80;1.70;;;;;;;;;;5079852;28;20662;-55
2023/03/04 14:41:27;;;;;;;2.57;1.60;;;;;;;;;;5088067;28;20233;-55
2023/03/04 14:44:12;;;;;;;1.60;1.50;;;;;;;;;;5085343;28;20187;-54
2023/03/04 14:46:41;;;;;;;1.97;1.73;;;;;;;;;;5085175;28;20290;-54
2023/03/04 14:49:10;;;;;;;2.30;1.70;;;;;;;;;;5085065;28;20172;-54
2023/03/04 14:51:44;;;;;;;2.30;1.80;;;;;;;;;;5087794;28;20176;-55